createdAt,value
2023-04-20T00:02:03.277Z,6.07
2023-04-20T00:06:05.533Z,6.01
2023-04-20T00:10:08.783Z,5.83
2023-04-20T00:14:10.234Z,6.02
2023-04-20T00:18:11.782Z,5.89
2023-04-20T00:22:19.983Z,5.98
2023-04-20T00:26:21.469Z,5.98
2023-04-20T00:30:23.215Z,5.94
2023-04-20T00:34:24.655Z,6.11
2023-04-20T00:38:26.164Z,6.07
2023-04-20T00:42:27.647Z,5.88
2023-04-20T00:46:29.223Z,6.04
2023-04-20T00:50:30.944Z,5.70
2023-04-20T00:54:32.858Z,5.65
2023-04-20T00:58:34.390Z,5.73
2023-04-20T01:02:36.035Z,5.76
2023-04-20T01:06:38.327Z,5.70
2023-04-20T01:10:39.753Z,5.90
2023-04-20T01:14:41.169Z,6.03
2023-04-20T01:18:48.679Z,5.94
2023-04-20T01:22:51.796Z,5.69
2023-04-20T01:26:53.313Z,5.74
2023-04-20T01:30:54.771Z,5.73
2023-04-20T01:34:56.226Z,5.77
2023-04-20T01:38:58.376Z,5.45
2023-04-20T01:42:59.850Z,5.56
2023-04-20T01:47:01.551Z,5.72
2023-04-20T01:51:03.183Z,5.60
2023-04-20T01:55:05.215Z,5.54
2023-04-20T01:59:06.622Z,5.71
2023-04-20T02:03:08.154Z,5.62
2023-04-20T02:07:09.748Z,5.72
2023-04-20T02:11:11.176Z,5.80
2023-04-20T02:15:12.638Z,5.88
2023-04-20T02:19:14.129Z,5.72
2023-04-20T02:23:15.831Z,5.91
2023-04-20T02:27:17.255Z,5.88
2023-04-20T02:31:19.047Z,5.65
2023-04-20T02:35:20.796Z,5.75
2023-04-20T02:39:24.983Z,5.70
2023-04-20T02:43:26.403Z,5.71
2023-04-20T02:47:27.859Z,5.61
2023-04-20T02:51:29.616Z,5.59
2023-04-20T02:55:31.209Z,5.54
2023-04-20T02:59:32.669Z,5.58
2023-04-20T03:03:34.269Z,5.71
2023-04-20T03:07:36.034Z,5.79
2023-04-20T03:11:37.475Z,5.88
2023-04-20T03:15:39.177Z,5.83
2023-04-20T03:19:41.651Z,5.85
2023-04-20T03:23:43.071Z,5.75
2023-04-20T03:27:46.598Z,5.90
2023-04-20T03:31:48.189Z,5.87
2023-04-20T03:35:49.615Z,5.74
2023-04-20T03:39:51.053Z,5.76
2023-04-20T03:43:52.495Z,5.64
2023-04-20T03:47:54.084Z,5.33
2023-04-20T03:51:55.498Z,5.58
2023-04-20T03:55:57.068Z,5.68
2023-04-20T03:59:58.489Z,5.62
2023-04-20T04:04:00.202Z,5.53
2023-04-20T04:08:02.104Z,5.80
2023-04-20T04:12:05.248Z,5.87
2023-04-20T04:16:06.871Z,5.88
2023-04-20T04:20:09.134Z,5.64
2023-04-20T04:24:10.583Z,5.86
2023-04-20T04:28:12.513Z,5.86
2023-04-20T04:32:14.001Z,5.87
2023-04-20T04:36:15.777Z,5.88
2023-04-20T04:40:18.182Z,5.86
2023-04-20T04:44:19.805Z,6.06
2023-04-20T04:48:21.259Z,6.01
2023-04-20T04:52:22.877Z,6.00
2023-04-20T04:56:24.684Z,6.01
2023-04-20T05:00:26.112Z,5.89
2023-04-20T05:04:27.608Z,5.93
2023-04-20T05:08:29.124Z,5.93
2023-04-20T05:12:30.524Z,6.13
2023-04-20T05:16:32.019Z,6.15
2023-04-20T05:20:33.540Z,5.86
2023-04-20T05:24:35.122Z,5.92
2023-04-20T05:28:37.069Z,6.10
2023-04-20T05:32:38.475Z,5.98
2023-04-20T05:36:41.232Z,6.12
2023-04-20T05:40:42.709Z,6.02
2023-04-20T05:44:44.244Z,6.00
2023-04-20T05:48:46.000Z,6.03
2023-04-20T05:52:47.432Z,5.98
2023-04-20T05:56:51.232Z,6.35
2023-04-20T06:00:52.902Z,6.11
2023-04-20T06:04:54.458Z,5.97
2023-04-20T06:08:58.085Z,5.90
2023-04-20T06:12:59.547Z,6.04
2023-04-20T06:17:00.939Z,6.13
2023-04-20T06:21:03.221Z,6.11
2023-04-20T06:25:04.929Z,6.16
2023-04-20T06:29:06.378Z,6.06
2023-04-20T06:33:09.165Z,6.06
2023-04-20T06:37:11.676Z,6.24
2023-04-20T06:41:13.138Z,6.34
2023-04-20T06:45:14.644Z,6.53
2023-04-20T06:49:16.293Z,6.66
2023-04-20T06:53:18.112Z,6.66
2023-04-20T06:57:19.744Z,6.94
2023-04-20T07:01:21.720Z,7.04
2023-04-20T07:05:23.657Z,7.27
2023-04-20T07:09:25.123Z,7.24
2023-04-20T07:13:26.550Z,7.45
2023-04-20T07:17:28.187Z,7.53
2023-04-20T07:21:31.615Z,7.60
2023-04-20T07:25:33.049Z,7.61
2023-04-20T07:29:34.524Z,7.39
2023-04-20T07:33:36.201Z,7.60
2023-04-20T07:37:37.622Z,7.53
2023-04-20T07:41:39.033Z,7.66
2023-04-20T07:45:41.771Z,7.51
2023-04-20T07:49:43.931Z,7.89
2023-04-20T07:53:45.365Z,7.88
2023-04-20T07:57:46.992Z,8.11
2023-04-20T08:01:48.505Z,7.97
2023-04-20T08:05:50.000Z,7.97
2023-04-20T08:09:51.696Z,8.18
2023-04-20T08:13:53.118Z,8.04
2023-04-20T08:17:54.633Z,8.34
2023-04-20T08:21:56.348Z,8.66
2023-04-20T08:25:58.026Z,9.07
2023-04-20T08:29:59.482Z,9.20
2023-04-20T08:34:01.371Z,9.13
2023-04-20T08:38:02.841Z,8.96
2023-04-20T08:42:04.330Z,8.82
2023-04-20T08:46:06.007Z,9.06
2023-04-20T08:50:09.046Z,8.85
2023-04-20T08:54:11.419Z,8.97
2023-04-20T08:58:13.056Z,8.65
2023-04-20T09:02:14.860Z,8.60
2023-04-20T09:06:18.380Z,8.30
2023-04-20T09:10:19.911Z,8.52
2023-04-20T09:14:21.372Z,8.72
2023-04-20T09:18:24.662Z,8.45
2023-04-20T09:22:33.536Z,8.38
2023-04-20T09:26:36.097Z,8.33
2023-04-20T09:30:49.157Z,8.51
2023-04-20T09:34:50.885Z,8.27
2023-04-20T09:39:03.727Z,8.35
2023-04-20T09:43:18.099Z,8.42
2023-04-20T09:47:20.012Z,8.45
2023-04-20T09:51:24.318Z,8.81
2023-04-20T09:55:26.611Z,9.07
2023-04-20T09:59:28.845Z,9.16
2023-04-20T10:03:30.604Z,9.59
2023-04-20T10:07:33.107Z,9.94
2023-04-20T10:11:49.026Z,10.64
2023-04-20T10:15:54.427Z,10.56
2023-04-20T10:19:55.928Z,10.68
2023-04-20T10:23:58.973Z,10.52
2023-04-20T10:28:04.698Z,10.62
2023-04-20T10:32:06.227Z,10.36
2023-04-20T10:36:07.695Z,11.03
2023-04-20T10:40:10.580Z,11.21
2023-04-20T10:44:12.017Z,11.50
2023-04-20T10:48:15.997Z,11.18
2023-04-20T10:52:31.678Z,11.22
2023-04-20T10:56:40.668Z,11.68
2023-04-20T11:00:42.112Z,11.83
2023-04-20T11:04:43.661Z,11.85
2023-04-20T11:08:45.185Z,11.48
2023-04-20T11:12:46.948Z,11.78
2023-04-20T11:16:53.231Z,11.99
2023-04-20T11:20:56.266Z,11.52
2023-04-20T11:25:09.224Z,11.40
2023-04-20T11:29:10.700Z,11.39
2023-04-20T11:33:13.988Z,11.17
2023-04-20T11:37:15.710Z,11.35
2023-04-20T11:41:18.071Z,11.13
2023-04-20T11:45:21.808Z,11.20
2023-04-20T11:49:25.143Z,11.29
2023-04-20T11:53:26.784Z,11.23
2023-04-20T11:57:28.284Z,12.19
2023-04-20T12:01:30.045Z,12.46
2023-04-20T12:05:31.536Z,12.56
2023-04-20T12:09:38.336Z,12.29
2023-04-20T12:13:39.863Z,13.29
2023-04-20T12:17:41.343Z,14.50
2023-04-20T12:21:43.311Z,14.46
2023-04-20T12:25:44.939Z,15.53
2023-04-20T12:29:46.449Z,15.25
2023-04-20T12:33:47.877Z,15.44
2023-04-20T12:37:49.292Z,15.21
2023-04-20T12:41:50.810Z,15.69
2023-04-20T12:45:52.305Z,15.89
2023-04-20T12:49:55.222Z,16.50
2023-04-20T12:53:56.674Z,16.63
2023-04-20T12:57:58.155Z,16.39
2023-04-20T13:01:59.658Z,17.11
2023-04-20T13:06:01.658Z,17.84
2023-04-20T13:10:03.941Z,17.80
2023-04-20T13:14:05.724Z,18.12
2023-04-20T13:18:07.479Z,17.94
2023-04-20T13:22:08.947Z,17.88
2023-04-20T13:26:10.491Z,18.28
2023-04-20T13:30:12.693Z,18.76
2023-04-20T13:34:14.463Z,18.81
2023-04-20T13:38:16.068Z,18.12
2023-04-20T13:42:17.515Z,18.53
2023-04-20T13:46:20.152Z,18.86
2023-04-20T13:50:21.813Z,18.67
2023-04-20T13:54:23.240Z,18.28
2023-04-20T13:58:24.711Z,18.59
2023-04-20T14:02:27.388Z,18.15
2023-04-20T14:06:29.107Z,18.79
2023-04-20T14:10:30.636Z,19.04
2023-04-20T14:14:32.151Z,18.73
2023-04-20T14:18:33.657Z,18.16
2023-04-20T14:22:36.635Z,17.14
2023-04-20T14:26:38.123Z,16.54
2023-04-20T14:30:39.617Z,16.12
2023-04-20T14:34:41.184Z,15.76
2023-04-20T14:38:42.687Z,15.73
2023-04-20T14:42:45.031Z,15.87
2023-04-20T14:46:46.589Z,15.88
2023-04-20T14:50:48.210Z,15.68
2023-04-20T14:54:49.673Z,15.94
2023-04-20T14:58:51.249Z,16.86
2023-04-20T15:02:53.589Z,16.49
2023-04-20T15:06:55.205Z,17.97
2023-04-20T15:10:56.733Z,18.63
2023-04-20T15:14:58.173Z,19.46
2023-04-20T15:18:59.618Z,18.80
2023-04-20T15:23:01.032Z,17.16
2023-04-20T15:27:03.959Z,16.62
2023-04-20T15:31:07.951Z,16.30
2023-04-20T15:35:09.624Z,16.21
2023-04-20T15:39:11.446Z,15.97
2023-04-20T15:43:12.921Z,15.89
2023-04-20T15:47:15.328Z,15.65
2023-04-20T15:51:17.604Z,15.64
2023-04-20T15:55:19.058Z,15.66
2023-04-20T15:59:20.733Z,15.94
2023-04-20T16:03:22.337Z,16.02
2023-04-20T16:07:23.823Z,15.88
2023-04-20T16:11:25.258Z,15.99
2023-04-20T16:15:26.831Z,15.84
2023-04-20T16:19:28.668Z,15.65
2023-04-20T16:23:31.292Z,15.63
2023-04-20T16:27:33.192Z,15.33
2023-04-20T16:31:36.658Z,15.20
2023-04-20T16:35:38.201Z,16.03
2023-04-20T16:39:40.474Z,17.05
2023-04-20T16:43:41.939Z,17.11
2023-04-20T16:47:43.530Z,17.88
2023-04-20T16:51:45.029Z,18.16
2023-04-20T16:55:46.541Z,17.33
2023-04-20T16:59:48.025Z,17.20
2023-04-20T17:03:49.547Z,16.59
2023-04-20T17:07:51.068Z,16.65
2023-04-20T17:11:52.735Z,16.10
2023-04-20T17:15:54.197Z,16.03
2023-04-20T17:19:55.931Z,15.81
2023-04-20T17:23:57.482Z,15.53
2023-04-20T17:27:58.952Z,15.11
2023-04-20T17:32:00.660Z,15.02
2023-04-20T17:36:02.142Z,14.67
2023-04-20T17:40:05.044Z,14.70
2023-04-20T17:44:06.524Z,14.48
2023-04-20T17:48:08.993Z,14.32
2023-04-20T17:52:14.811Z,14.33
2023-04-20T17:56:16.331Z,14.30
2023-04-20T18:00:18.639Z,14.12
2023-04-20T18:04:21.124Z,14.01
2023-04-20T18:08:23.563Z,13.86
2023-04-20T18:12:25.093Z,13.56
2023-04-20T18:16:26.804Z,13.52
2023-04-20T18:20:29.943Z,13.42
2023-04-20T18:24:33.864Z,13.23
2023-04-20T18:28:35.638Z,13.35
2023-04-20T18:32:38.357Z,13.04
2023-04-20T18:36:40.548Z,12.77
2023-04-20T18:40:42.032Z,12.94
2023-04-20T18:44:43.605Z,12.77
2023-04-20T18:48:45.057Z,12.80
2023-04-20T18:52:46.617Z,12.69
2023-04-20T18:56:50.639Z,12.54
2023-04-20T19:00:52.166Z,12.57
2023-04-20T19:04:53.731Z,12.52
2023-04-20T19:08:55.882Z,12.52
2023-04-20T19:12:57.491Z,12.27
2023-04-20T19:16:59.163Z,12.29
2023-04-20T19:21:00.771Z,12.15
2023-04-20T19:25:02.360Z,11.97
2023-04-20T19:29:04.137Z,11.99
2023-04-20T19:33:06.029Z,12.08
2023-04-20T19:37:07.600Z,12.02
2023-04-20T19:41:09.890Z,12.06
2023-04-20T19:45:11.800Z,11.95
2023-04-20T19:49:13.367Z,11.90
2023-04-20T19:53:15.709Z,11.90
2023-04-20T19:57:17.149Z,11.88
2023-04-20T20:01:19.308Z,11.56
2023-04-20T20:05:20.818Z,11.86
2023-04-20T20:09:24.199Z,11.66
2023-04-20T20:13:26.401Z,11.71
2023-04-20T20:17:27.965Z,11.64
2023-04-20T20:21:29.749Z,11.44
2023-04-20T20:25:35.071Z,11.60
2023-04-20T20:29:36.888Z,11.46
2023-04-20T20:33:38.359Z,11.49
2023-04-20T20:37:41.113Z,11.49
2023-04-20T20:41:46.533Z,11.39
2023-04-20T20:45:48.000Z,11.37
2023-04-20T20:49:49.542Z,11.35
2023-04-20T20:53:50.993Z,11.14
2023-04-20T20:57:52.628Z,11.13
2023-04-20T21:01:54.332Z,11.15
2023-04-20T21:05:55.807Z,11.07
2023-04-20T21:09:57.245Z,10.97
2023-04-20T21:14:01.801Z,11.10
2023-04-20T21:18:03.840Z,11.27
2023-04-20T21:22:05.491Z,11.42
2023-04-20T21:26:06.918Z,11.26
2023-04-20T21:30:11.431Z,11.12
2023-04-20T21:34:13.282Z,10.89
2023-04-20T21:38:14.757Z,10.70
2023-04-20T21:42:16.438Z,10.75
2023-04-20T21:46:18.057Z,10.79
2023-04-20T21:50:19.688Z,10.66
2023-04-20T21:54:21.188Z,10.75
2023-04-20T21:58:22.663Z,10.40
2023-04-20T22:02:24.234Z,10.43
2023-04-20T22:06:25.758Z,10.51
2023-04-20T22:10:28.014Z,10.43
2023-04-20T22:14:29.594Z,10.40
2023-04-20T22:18:31.046Z,10.51
2023-04-20T22:22:32.936Z,10.35
2023-04-20T22:26:34.518Z,10.39
2023-04-20T22:30:36.266Z,10.39
2023-04-20T22:34:37.807Z,10.33
2023-04-20T22:38:39.358Z,10.23
2023-04-20T22:42:40.922Z,10.14
2023-04-20T22:46:42.482Z,10.33
2023-04-20T22:50:43.942Z,10.16
2023-04-20T22:54:48.176Z,10.12
2023-04-20T22:58:49.863Z,10.07
2023-04-20T23:02:51.578Z,9.92
2023-04-20T23:06:55.972Z,10.13
2023-04-20T23:10:57.442Z,10.13
2023-04-20T23:15:02.090Z,10.05
2023-04-20T23:19:03.550Z,10.15
2023-04-20T23:23:07.402Z,9.94
2023-04-20T23:27:08.846Z,10.03
2023-04-20T23:31:10.323Z,10.06
2023-04-20T23:35:12.204Z,10.07
2023-04-20T23:39:13.647Z,10.05
2023-04-20T23:43:15.309Z,9.91
2023-04-20T23:47:18.135Z,10.04
2023-04-20T23:51:19.558Z,10.00
2023-04-20T23:55:21.060Z,10.10
2023-04-20T23:59:22.523Z,10.14
